createdAt,value
2023-03-15T00:01:27.443Z,11.70
2023-03-15T00:03:55.789Z,8.90
2023-03-15T00:06:24.334Z,15.70
2023-03-15T00:08:52.838Z,10.70
2023-03-15T00:11:21.504Z,7.60
2023-03-15T00:13:51.777Z,10.80
2023-03-15T00:16:20.149Z,11.60
2023-03-15T00:18:55.596Z,11.00
2023-03-15T00:21:25.140Z,11.00
2023-03-15T00:23:53.408Z,12.60
2023-03-15T00:26:22.152Z,8.20
2023-03-15T00:28:51.886Z,12.10
2023-03-15T00:31:25.059Z,10.70
2023-03-15T00:33:55.191Z,12.10
2023-03-15T00:36:26.128Z,11.80
2023-03-15T00:38:55.966Z,12.40
2023-03-15T00:41:24.408Z,14.20
2023-03-15T00:43:58.085Z,11.90
2023-03-15T00:46:26.899Z,11.80
2023-03-15T00:48:55.532Z,10.90
2023-03-15T00:51:24.329Z,14.50
2023-03-15T00:53:53.948Z,14.10
2023-03-15T00:56:25.598Z,14.80
2023-03-15T00:58:55.734Z,10.80
2023-03-15T01:01:26.020Z,8.20
2023-03-15T01:03:54.951Z,10.80
2023-03-15T01:06:25.152Z,10.30
2023-03-15T01:08:55.946Z,12.80
2023-03-15T01:11:26.256Z,8.20
2023-03-15T01:13:56.368Z,10.40
2023-03-15T01:16:27.611Z,9.60
2023-03-15T01:18:56.215Z,11.40
2023-03-15T01:21:25.617Z,9.70
2023-03-15T01:23:54.748Z,7.70
2023-03-15T01:26:23.502Z,12.00
2023-03-15T01:28:51.942Z,10.20
2023-03-15T01:31:28.271Z,8.70
2023-03-15T01:33:57.797Z,10.60
2023-03-15T01:36:27.512Z,11.20
2023-03-15T01:38:56.389Z,10.00
2023-03-15T01:41:33.358Z,10.20
2023-03-15T01:44:01.965Z,14.30
2023-03-15T01:46:35.128Z,9.40
2023-03-15T01:49:39.003Z,12.40
2023-03-15T01:52:16.235Z,10.20
2023-03-15T01:55:07.974Z,7.30
2023-03-15T01:57:50.971Z,11.60
2023-03-15T02:00:19.995Z,10.80
2023-03-15T02:02:56.639Z,11.70
2023-03-15T02:05:29.775Z,10.50
2023-03-15T02:07:58.636Z,11.30
2023-03-15T02:10:42.646Z,9.70
2023-03-15T02:13:25.087Z,11.30
2023-03-15T02:15:54.936Z,13.50
2023-03-15T02:18:27.568Z,11.20
2023-03-15T02:21:11.921Z,14.50
2023-03-15T02:23:41.149Z,14.30
2023-03-15T02:26:50.147Z,10.50
2023-03-15T02:29:20.079Z,12.50
2023-03-15T02:31:53.433Z,12.90
2023-03-15T02:34:25.549Z,12.10
2023-03-15T02:36:54.912Z,8.50
2023-03-15T02:39:23.807Z,14.50
2023-03-15T02:41:57.069Z,13.50
2023-03-15T02:44:26.405Z,14.00
2023-03-15T02:46:55.654Z,12.20
2023-03-15T02:49:25.472Z,13.10
2023-03-15T02:51:55.741Z,12.60
2023-03-15T02:54:24.095Z,10.10
2023-03-15T02:56:55.153Z,11.90
2023-03-15T02:59:24.137Z,12.50
2023-03-15T03:01:52.830Z,11.20
2023-03-15T03:04:22.069Z,11.40
2023-03-15T03:06:50.495Z,12.80
2023-03-15T03:09:23.553Z,13.90
2023-03-15T03:11:51.874Z,12.20
2023-03-15T03:14:20.199Z,14.00
2023-03-15T03:16:51.539Z,12.80
2023-03-15T03:19:20.145Z,14.50
2023-03-15T03:21:52.301Z,13.90
2023-03-15T03:24:21.059Z,10.40
2023-03-15T03:26:49.285Z,12.80
2023-03-15T03:29:18.151Z,12.90
2023-03-15T03:31:47.929Z,12.80
2023-03-15T03:34:21.910Z,12.80
2023-03-15T03:36:50.540Z,10.20
2023-03-15T03:39:23.957Z,11.40
2023-03-15T03:41:52.729Z,10.90
2023-03-15T03:44:22.377Z,10.00
2023-03-15T03:46:51.648Z,11.20
2023-03-15T03:49:20.233Z,13.10
2023-03-15T03:51:48.625Z,11.60
2023-03-15T03:54:17.781Z,14.30
2023-03-15T03:56:46.155Z,12.70
2023-03-15T03:59:16.062Z,13.00
2023-03-15T04:01:52.186Z,12.30
2023-03-15T04:04:20.502Z,13.70
2023-03-15T04:06:50.897Z,13.00
2023-03-15T04:09:25.229Z,10.70
2023-03-15T04:12:01.633Z,10.60
2023-03-15T04:14:30.880Z,10.60
2023-03-15T04:16:59.248Z,13.20
2023-03-15T04:19:28.624Z,11.90
2023-03-15T04:21:57.293Z,16.10
2023-03-15T04:24:54.622Z,13.20
2023-03-15T04:27:45.779Z,11.40
2023-03-15T04:30:36.954Z,12.30
2023-03-15T04:33:15.880Z,14.50
2023-03-15T04:35:54.037Z,15.10
2023-03-15T04:38:38.135Z,12.70
2023-03-15T04:41:11.344Z,12.90
2023-03-15T04:43:49.774Z,13.50
2023-03-15T04:46:44.527Z,15.50
2023-03-15T04:49:32.905Z,14.90
2023-03-15T04:52:11.637Z,14.80
2023-03-15T04:55:17.615Z,14.90
2023-03-15T04:58:22.263Z,15.00
2023-03-15T05:01:17.030Z,15.60
2023-03-15T05:04:05.516Z,21.60
2023-03-15T05:06:55.831Z,28.30
2023-03-15T05:10:03.173Z,24.50
2023-03-15T05:12:54.929Z,22.10
2023-03-15T05:15:41.842Z,20.40
2023-03-15T05:18:22.126Z,16.70
2023-03-15T05:21:07.996Z,16.50
2023-03-15T05:23:55.455Z,17.40
2023-03-15T05:26:30.319Z,17.10
2023-03-15T05:29:18.942Z,27.10
2023-03-15T05:32:18.377Z,19.60
2023-03-15T05:35:16.576Z,18.50
2023-03-15T05:38:06.061Z,19.10
2023-03-15T05:40:47.614Z,21.60
2023-03-15T05:43:45.247Z,20.30
2023-03-15T05:46:41.448Z,18.50
2023-03-15T05:49:29.737Z,21.40
2023-03-15T05:52:10.725Z,20.60
2023-03-15T05:54:49.182Z,20.30
2023-03-15T05:57:48.545Z,20.60
2023-03-15T06:00:36.305Z,21.50
2023-03-15T06:03:07.194Z,22.80
2023-03-15T06:05:59.382Z,19.70
2023-03-15T06:08:35.309Z,19.30
2023-03-15T06:11:07.245Z,21.70
2023-03-15T06:13:35.710Z,23.70
2023-03-15T06:16:11.167Z,21.50
2023-03-15T06:18:43.292Z,22.30
2023-03-15T06:21:17.464Z,24.60
2023-03-15T06:23:48.890Z,23.20
2023-03-15T06:26:19.685Z,23.80
2023-03-15T06:28:48.449Z,23.00
2023-03-15T06:31:20.007Z,22.90
2023-03-15T06:33:53.925Z,24.90
2023-03-15T06:36:25.094Z,23.40
2023-03-15T06:38:54.741Z,23.80
2023-03-15T06:41:23.356Z,24.00
2023-03-15T06:43:59.744Z,21.80
2023-03-15T06:46:28.885Z,23.80
2023-03-15T06:48:57.428Z,22.30
2023-03-15T06:51:29.284Z,23.70
2023-03-15T06:53:57.595Z,20.50
2023-03-15T06:56:27.737Z,20.70
2023-03-15T06:58:56.121Z,23.40
2023-03-15T07:01:27.649Z,21.10
2023-03-15T07:03:56.237Z,21.40
2023-03-15T07:06:24.615Z,22.40
2023-03-15T07:08:54.401Z,20.60
2023-03-15T07:11:22.648Z,24.10
2023-03-15T07:13:50.851Z,24.00
2023-03-15T07:16:19.050Z,22.50
2023-03-15T07:18:48.891Z,22.60
2023-03-15T07:21:18.890Z,21.70
2023-03-15T07:23:47.794Z,22.70
2023-03-15T07:26:16.149Z,18.40
2023-03-15T07:28:50.604Z,20.10
2023-03-15T07:31:19.289Z,16.90
2023-03-15T07:33:47.478Z,21.80
2023-03-15T07:36:17.023Z,16.80
2023-03-15T07:38:46.836Z,21.50
2023-03-15T07:41:18.416Z,19.40
2023-03-15T07:43:58.547Z,23.90
2023-03-15T07:46:26.981Z,20.20
2023-03-15T07:48:55.235Z,24.60
2023-03-15T07:51:23.769Z,27.10
2023-03-15T07:53:52.195Z,22.60
2023-03-15T07:56:20.519Z,21.40
2023-03-15T07:58:48.727Z,20.40
2023-03-15T08:01:18.737Z,19.20
2023-03-15T08:03:48.707Z,23.20
2023-03-15T08:06:18.704Z,20.50
2023-03-15T08:08:51.444Z,17.80
2023-03-15T08:11:19.698Z,18.80
2023-03-15T08:13:52.383Z,17.10
2023-03-15T08:16:20.896Z,14.10
2023-03-15T08:18:51.125Z,15.20
2023-03-15T08:21:19.856Z,15.50
2023-03-15T08:23:48.178Z,13.50
2023-03-15T08:26:17.071Z,14.90
2023-03-15T08:28:46.460Z,15.30
2023-03-15T08:31:14.845Z,14.60
2023-03-15T08:33:43.185Z,16.30
2023-03-15T08:36:12.479Z,16.40
2023-03-15T08:38:42.849Z,14.20
2023-03-15T08:41:11.451Z,16.50
2023-03-15T08:43:39.622Z,16.90
2023-03-15T08:46:08.084Z,17.80
2023-03-15T08:48:37.030Z,17.50
2023-03-15T08:51:06.303Z,16.00
2023-03-15T08:53:35.558Z,16.30
2023-03-15T08:56:04.764Z,17.30
2023-03-15T08:58:34.734Z,17.30
2023-03-15T09:01:05.057Z,18.90
2023-03-15T09:03:35.813Z,20.20
2023-03-15T09:06:04.105Z,17.70
2023-03-15T09:08:33.851Z,17.70
2023-03-15T09:11:02.337Z,16.50
2023-03-15T09:13:31.204Z,19.50
2023-03-15T09:16:00.887Z,19.60
2023-03-15T09:18:30.525Z,20.60
2023-03-15T09:20:59.056Z,20.40
2023-03-15T09:23:33.965Z,18.70
2023-03-15T09:26:02.415Z,18.00
2023-03-15T09:28:32.890Z,19.80
2023-03-15T09:31:05.023Z,20.90
2023-03-15T09:33:33.416Z,19.30
2023-03-15T09:36:01.887Z,18.80
2023-03-15T09:38:31.558Z,16.30
2023-03-15T09:41:00.542Z,20.70
2023-03-15T09:43:42.927Z,19.10
2023-03-15T09:46:17.982Z,21.00
2023-03-15T09:49:07.544Z,19.20
2023-03-15T09:51:55.642Z,18.90
2023-03-15T09:54:29.522Z,20.80
2023-03-15T09:56:58.095Z,20.10
2023-03-15T09:59:36.109Z,15.90
2023-03-15T10:02:40.426Z,17.50
2023-03-15T10:05:16.896Z,16.20
2023-03-15T10:07:46.988Z,17.10
2023-03-15T10:10:19.534Z,17.10
2023-03-15T10:13:16.869Z,17.00
2023-03-15T10:16:00.281Z,14.60
2023-03-15T10:21:04.793Z,15.20
2023-03-15T10:23:55.336Z,19.60
2023-03-15T10:26:28.437Z,15.60
2023-03-15T10:31:36.958Z,15.70
2023-03-15T10:34:11.689Z,16.50
2023-03-15T10:36:49.406Z,23.20
2023-03-15T10:39:19.484Z,15.80
2023-03-15T10:41:48.835Z,21.00
2023-03-15T10:44:24.850Z,16.00
2023-03-15T10:47:22.185Z,19.40
2023-03-15T10:49:58.718Z,24.10
2023-03-15T10:52:28.473Z,18.30
2023-03-15T10:55:02.447Z,22.40
2023-03-15T10:57:35.930Z,18.70
2023-03-15T11:00:27.889Z,17.60
2023-03-15T11:03:08.231Z,14.50
2023-03-15T11:05:51.223Z,14.80
2023-03-15T11:08:44.584Z,16.10
2023-03-15T11:11:12.871Z,15.70
2023-03-15T11:14:08.327Z,16.30
2023-03-15T11:16:38.772Z,18.80
2023-03-15T11:19:12.704Z,16.60
2023-03-15T11:21:41.420Z,19.30
2023-03-15T11:24:12.851Z,18.20
2023-03-15T11:26:41.156Z,20.10
2023-03-15T11:29:33.113Z,18.00
2023-03-15T11:32:02.671Z,16.60
2023-03-15T11:34:35.690Z,18.00
2023-03-15T11:37:11.560Z,13.60
2023-03-15T11:39:50.312Z,13.40
2023-03-15T11:42:53.673Z,15.50
2023-03-15T11:45:31.793Z,14.70
2023-03-15T11:48:42.621Z,16.00
2023-03-15T11:51:11.794Z,13.70
2023-03-15T11:53:59.151Z,19.20
2023-03-15T11:56:29.412Z,15.00
2023-03-15T11:59:11.019Z,15.30
2023-03-15T12:01:45.946Z,16.00
2023-03-15T12:04:29.176Z,17.10
2023-03-15T12:07:04.599Z,17.20
2023-03-15T12:09:32.951Z,13.00
2023-03-15T12:12:24.447Z,15.40
2023-03-15T12:15:07.079Z,16.40
2023-03-15T12:17:51.030Z,12.50
2023-03-15T12:20:21.242Z,15.20
2023-03-15T12:22:51.960Z,15.20
2023-03-15T12:25:39.497Z,18.70
2023-03-15T12:28:37.448Z,12.00
2023-03-15T12:31:08.211Z,15.60
2023-03-15T12:33:50.263Z,16.20
2023-03-15T12:36:44.049Z,16.00
2023-03-15T12:39:18.118Z,14.20
2023-03-15T12:41:50.957Z,13.40
2023-03-15T12:46:50.889Z,15.30
2023-03-15T12:49:24.961Z,14.80
2023-03-15T12:52:02.647Z,14.10
2023-03-15T12:54:49.335Z,15.60
2023-03-15T12:57:22.461Z,16.50
2023-03-15T13:00:15.294Z,16.90
2023-03-15T13:02:44.595Z,14.30
2023-03-15T13:05:36.408Z,17.80
2023-03-15T13:08:13.882Z,20.10
2023-03-15T13:11:16.990Z,18.80
2023-03-15T13:14:16.698Z,17.60
2023-03-15T13:17:06.880Z,16.80
2023-03-15T13:19:42.574Z,16.20
2023-03-15T13:22:49.999Z,22.60
2023-03-15T13:25:35.291Z,24.70
2023-03-15T13:28:07.331Z,49.60
2023-03-15T13:30:40.574Z,33.40
2023-03-15T13:33:08.868Z,36.60
2023-03-15T13:35:45.441Z,30.00
2023-03-15T13:38:28.698Z,21.20
2023-03-15T13:41:13.078Z,19.50
2023-03-15T13:43:44.304Z,14.70
2023-03-15T13:46:19.965Z,15.90
2023-03-15T13:48:49.007Z,17.40
2023-03-15T13:51:37.087Z,16.60
2023-03-15T13:54:15.567Z,19.60
2023-03-15T13:56:49.749Z,16.40
2023-03-15T13:59:18.878Z,14.00
2023-03-15T14:01:47.762Z,14.00
2023-03-15T14:04:17.475Z,19.10
2023-03-15T14:06:48.611Z,17.80
2023-03-15T14:09:22.253Z,16.00
2023-03-15T14:12:07.471Z,22.10
2023-03-15T14:14:50.773Z,15.00
2023-03-15T14:17:27.514Z,19.40
2023-03-15T14:20:10.892Z,15.30
2023-03-15T14:22:41.810Z,16.90
2023-03-15T14:25:22.811Z,16.20
2023-03-15T14:27:51.097Z,18.00
2023-03-15T14:30:24.638Z,17.00
2023-03-15T14:32:59.072Z,15.40
2023-03-15T14:35:30.506Z,15.80
2023-03-15T14:38:09.443Z,17.50
2023-03-15T14:40:39.296Z,19.40
2023-03-15T14:43:08.083Z,16.10
2023-03-15T14:45:38.115Z,14.60
2023-03-15T14:48:28.935Z,13.00
2023-03-15T14:50:57.807Z,11.60
2023-03-15T14:53:26.899Z,13.20
2023-03-15T14:55:56.698Z,12.40
2023-03-15T14:58:25.073Z,14.30
2023-03-15T15:00:58.217Z,14.70
2023-03-15T15:03:41.448Z,14.80
2023-03-15T15:06:12.705Z,13.40
2023-03-15T15:08:45.565Z,12.60
2023-03-15T15:11:14.416Z,14.00
2023-03-15T15:13:45.471Z,9.20
2023-03-15T15:16:14.534Z,10.30
2023-03-15T15:18:43.159Z,11.00
2023-03-15T15:21:23.956Z,14.40
2023-03-15T15:23:58.589Z,14.90
2023-03-15T15:26:29.310Z,11.90
2023-03-15T15:28:57.999Z,16.30
2023-03-15T15:31:27.480Z,14.40
2023-03-15T15:34:04.521Z,13.10
2023-03-15T15:36:35.251Z,13.60
2023-03-15T15:39:07.163Z,14.60
2023-03-15T15:41:35.764Z,16.20
2023-03-15T15:44:16.171Z,14.20
2023-03-15T15:46:45.144Z,16.90
2023-03-15T15:49:13.577Z,13.80
2023-03-15T15:51:46.107Z,12.90
2023-03-15T15:54:40.822Z,13.00
2023-03-15T15:57:11.090Z,14.50
2023-03-15T15:59:39.948Z,12.80
2023-03-15T16:02:17.693Z,17.50
2023-03-15T16:04:46.255Z,26.40
2023-03-15T16:07:15.789Z,13.40
2023-03-15T16:09:44.871Z,12.50
2023-03-15T16:12:14.385Z,15.60
2023-03-15T16:14:44.022Z,14.50
2023-03-15T16:17:22.516Z,12.20
2023-03-15T16:19:53.304Z,14.20
2023-03-15T16:22:22.512Z,14.40
2023-03-15T16:24:53.753Z,15.30
2023-03-15T16:27:23.552Z,13.60
2023-03-15T16:29:53.363Z,15.20
2023-03-15T16:32:36.704Z,14.40
2023-03-15T16:35:15.842Z,15.40
2023-03-15T16:37:45.961Z,18.40
2023-03-15T16:40:23.857Z,16.30
2023-03-15T16:42:53.123Z,19.70
2023-03-15T16:45:21.569Z,19.20
2023-03-15T16:47:56.944Z,19.50
2023-03-15T16:50:25.971Z,20.40
2023-03-15T16:52:55.597Z,21.90
2023-03-15T16:55:28.952Z,18.40
2023-03-15T16:58:03.733Z,26.20
2023-03-15T17:00:32.486Z,31.80
2023-03-15T17:03:01.729Z,33.00
2023-03-15T17:05:32.097Z,30.60
2023-03-15T17:08:01.056Z,28.20
2023-03-15T17:10:31.906Z,26.30
2023-03-15T17:13:01.993Z,25.90
2023-03-15T17:15:30.872Z,24.10
2023-03-15T17:17:59.132Z,21.30
2023-03-15T17:20:29.420Z,21.70
2023-03-15T17:23:04.046Z,21.50
2023-03-15T17:25:33.845Z,34.80
2023-03-15T17:28:03.134Z,27.90
2023-03-15T17:30:33.331Z,23.00
2023-03-15T17:33:04.939Z,20.90
2023-03-15T17:35:38.390Z,23.50
2023-03-15T17:38:07.355Z,28.40
2023-03-15T17:40:36.493Z,21.50
2023-03-15T17:43:05.327Z,23.50
2023-03-15T17:45:34.760Z,23.30
2023-03-15T17:48:04.495Z,29.30
2023-03-15T17:50:33.351Z,31.50
2023-03-15T17:53:03.879Z,27.50
2023-03-15T17:55:35.138Z,28.60
2023-03-15T17:58:06.190Z,28.20
2023-03-15T18:00:35.076Z,26.80
2023-03-15T18:03:04.526Z,28.10
2023-03-15T18:05:33.261Z,30.60
2023-03-15T18:08:04.398Z,28.30
2023-03-15T18:10:38.644Z,28.90
2023-03-15T18:13:07.436Z,28.50
2023-03-15T18:15:37.982Z,25.80
2023-03-15T18:18:08.406Z,27.10
2023-03-15T18:20:37.176Z,25.10
2023-03-15T18:23:07.274Z,27.30
2023-03-15T18:25:35.936Z,28.20
2023-03-15T18:28:04.817Z,28.20
2023-03-15T18:30:33.777Z,26.40
2023-03-15T18:33:03.941Z,27.80
2023-03-15T18:35:33.811Z,26.40
2023-03-15T18:38:04.237Z,29.90
2023-03-15T18:40:33.514Z,26.00
2023-03-15T18:45:36.595Z,30.30
2023-03-15T18:48:16.090Z,30.40
2023-03-15T18:50:45.538Z,28.40
2023-03-15T18:53:16.455Z,30.40
2023-03-15T18:55:44.808Z,27.40
2023-03-15T18:58:13.247Z,31.10
2023-03-15T19:00:42.095Z,28.50
2023-03-15T19:03:11.468Z,31.00
2023-03-15T19:05:39.927Z,30.80
2023-03-15T19:08:08.151Z,31.60
2023-03-15T19:10:37.239Z,30.90
2023-03-15T19:13:05.896Z,28.40
2023-03-15T19:15:34.187Z,29.90
2023-03-15T19:18:02.793Z,29.70
2023-03-15T19:20:32.222Z,31.00
2023-03-15T19:23:01.092Z,29.70
2023-03-15T19:25:29.950Z,28.20
2023-03-15T19:28:02.652Z,30.60
2023-03-15T19:30:32.679Z,27.20
2023-03-15T19:33:01.558Z,26.80
2023-03-15T19:35:32.483Z,28.70
2023-03-15T19:38:02.745Z,29.90
2023-03-15T19:40:40.285Z,28.20
2023-03-15T19:43:10.387Z,29.00
2023-03-15T19:45:38.950Z,29.10
2023-03-15T19:48:07.651Z,29.70
2023-03-15T19:50:35.902Z,30.90
2023-03-15T19:53:09.406Z,31.20
2023-03-15T19:55:37.896Z,32.60
2023-03-15T19:58:06.140Z,31.20
2023-03-15T20:00:34.751Z,34.50
2023-03-15T20:03:03.440Z,32.00
2023-03-15T20:05:32.120Z,30.80
2023-03-15T20:08:02.229Z,32.50
2023-03-15T20:10:31.105Z,31.00
2023-03-15T20:13:00.286Z,35.70
2023-03-15T20:15:29.893Z,34.70
2023-03-15T20:17:58.141Z,31.00
2023-03-15T20:20:26.455Z,33.20
2023-03-15T20:22:55.102Z,33.50
2023-03-15T20:25:25.486Z,34.10
2023-03-15T20:27:53.975Z,35.50
2023-03-15T20:30:22.535Z,33.80
2023-03-15T20:32:53.721Z,34.70
2023-03-15T20:35:21.978Z,34.70
2023-03-15T20:37:53.125Z,35.70
2023-03-15T20:40:21.992Z,33.80
2023-03-15T20:42:57.381Z,34.30
2023-03-15T20:45:25.776Z,30.10
2023-03-15T20:47:54.833Z,32.90
2023-03-15T20:50:23.937Z,32.40
2023-03-15T20:52:54.139Z,33.10
2023-03-15T20:55:23.757Z,29.70
2023-03-15T20:57:53.393Z,34.10
2023-03-15T21:00:23.073Z,32.00
2023-03-15T21:02:53.019Z,30.70
2023-03-15T21:05:22.797Z,30.10
2023-03-15T21:07:51.445Z,28.40
2023-03-15T21:10:19.934Z,29.10
2023-03-15T21:12:48.235Z,30.60
2023-03-15T21:15:24.429Z,34.30
2023-03-15T21:17:53.498Z,33.70
2023-03-15T21:20:22.090Z,34.20
2023-03-15T21:22:53.072Z,34.90
2023-03-15T21:25:21.598Z,33.90
2023-03-15T21:27:49.770Z,35.60
2023-03-15T21:30:18.416Z,34.60
2023-03-15T21:32:47.889Z,36.60
2023-03-15T21:35:22.107Z,40.40
2023-03-15T21:37:50.608Z,44.00
2023-03-15T21:40:18.841Z,42.60
2023-03-15T21:42:47.982Z,42.40
2023-03-15T21:45:16.515Z,40.30
2023-03-15T21:47:49.736Z,42.20
2023-03-15T21:50:18.318Z,48.40
2023-03-15T21:52:46.456Z,52.20
2023-03-15T21:55:15.666Z,48.40
2023-03-15T21:57:45.111Z,47.70
2023-03-15T22:00:20.105Z,49.50
2023-03-15T22:02:48.769Z,48.60
2023-03-15T22:05:17.360Z,49.50
2023-03-15T22:07:46.650Z,48.70
2023-03-15T22:10:15.756Z,50.40
2023-03-15T22:12:44.792Z,48.70
2023-03-15T22:15:14.146Z,48.70
2023-03-15T22:17:45.317Z,47.40
2023-03-15T22:20:16.926Z,46.30
2023-03-15T22:22:47.650Z,42.30
2023-03-15T22:25:16.037Z,44.50
2023-03-15T22:27:45.871Z,43.90
2023-03-15T22:30:14.484Z,43.90
2023-03-15T22:32:45.964Z,44.00
2023-03-15T22:35:16.139Z,44.80
2023-03-15T22:37:44.522Z,83.00
2023-03-15T22:40:16.343Z,324.10
2023-03-15T22:42:46.992Z,441.70
2023-03-15T22:45:20.539Z,394.30
2023-03-15T22:47:49.934Z,285.50
2023-03-15T22:50:18.513Z,280.90
2023-03-15T22:52:47.831Z,250.70
2023-03-15T22:55:18.074Z,183.20
2023-03-15T22:57:47.581Z,178.50
2023-03-15T23:00:17.929Z,143.70
2023-03-15T23:02:50.808Z,127.10
2023-03-15T23:05:19.843Z,107.60
2023-03-15T23:07:48.330Z,94.90
2023-03-15T23:10:16.818Z,78.90
2023-03-15T23:12:46.191Z,66.80
2023-03-15T23:15:15.413Z,53.40
2023-03-15T23:17:46.940Z,49.80
2023-03-15T23:20:17.117Z,51.00
2023-03-15T23:22:45.564Z,47.30
2023-03-15T23:25:15.020Z,50.60
2023-03-15T23:27:43.233Z,49.00
2023-03-15T23:30:13.834Z,47.50
2023-03-15T23:32:42.820Z,46.20
2023-03-15T23:35:15.119Z,52.20
2023-03-15T23:37:45.566Z,58.30
2023-03-15T23:40:15.286Z,60.10
2023-03-15T23:42:45.359Z,59.90
2023-03-15T23:45:15.430Z,65.60
2023-03-15T23:47:47.355Z,65.90
2023-03-15T23:50:17.701Z,67.40
2023-03-15T23:52:45.944Z,59.20
2023-03-15T23:55:14.980Z,61.00
2023-03-15T23:57:43.536Z,61.50
